createdAt,value
2022-09-15T00:11:54.085Z,0
2022-09-15T00:26:50.309Z,0
2022-09-15T00:41:45.987Z,0
2022-09-15T00:56:42.457Z,0
2022-09-15T01:11:38.914Z,0
2022-09-15T01:26:35.302Z,0.02
2022-09-15T01:41:31.582Z,0
2022-09-15T01:56:27.661Z,0
2022-09-15T02:11:24.413Z,0
2022-09-15T02:26:20.536Z,0
2022-09-15T02:41:16.175Z,0
2022-09-15T02:56:12.450Z,0
2022-09-15T03:11:08.797Z,0
2022-09-15T03:26:05.081Z,0
2022-09-15T03:41:01.217Z,0
2022-09-15T03:55:57.614Z,0
2022-09-15T04:10:53.727Z,0
2022-09-15T04:25:49.769Z,0
2022-09-15T04:40:46.226Z,0.02
2022-09-15T04:55:42.155Z,0.02
2022-09-15T05:10:38.386Z,0.02
2022-09-15T05:25:33.862Z,0.03
2022-09-15T05:40:30.243Z,0.03
2022-09-15T05:55:26.465Z,0.07
2022-09-15T06:10:22.704Z,0.07
2022-09-15T06:25:18.951Z,0.07
2022-09-15T06:40:15.263Z,0.1
2022-09-15T06:55:11.827Z,0.08
2022-09-15T07:25:04.423Z,0.12
2022-09-15T07:40:01.181Z,0.1
2022-09-15T07:54:57.528Z,0.08
2022-09-15T08:09:53.449Z,0.07
2022-09-15T08:24:50.120Z,0.16
2022-09-15T08:39:46.609Z,0.2
2022-09-15T08:54:43.402Z,0.2
2022-09-15T09:09:39.050Z,0.23
2022-09-15T09:39:32.102Z,0.34
2022-09-15T10:09:25.808Z,0.26
2022-09-15T10:24:21.242Z,0.23
2022-09-15T10:39:18.044Z,0.52
2022-09-15T10:54:15.058Z,0.34
2022-09-15T11:09:10.967Z,0.52
2022-09-15T11:24:07.484Z,0.24
2022-09-15T11:39:03.454Z,0.28
2022-09-15T11:53:59.586Z,0.2
2022-09-15T12:08:55.429Z,0.86
2022-09-15T12:23:52.306Z,0.31
2022-09-15T12:38:48.748Z,0.22
2022-09-15T12:53:45.733Z,0.52
2022-09-15T13:08:41.271Z,0.33
2022-09-15T13:23:37.244Z,0.26
2022-09-15T13:38:34.274Z,0.27
2022-09-15T13:53:30.165Z,0.27
2022-09-15T14:08:26.175Z,0.26
2022-09-15T14:23:22.115Z,0.2
2022-09-15T14:38:18.318Z,0.16
2022-09-15T14:53:14.399Z,0.16
2022-09-15T15:08:11.170Z,0.1
2022-09-15T15:23:06.713Z,0.05
2022-09-15T15:38:02.922Z,0.04
2022-09-15T15:52:58.800Z,0.03
2022-09-15T16:07:54.106Z,0.03
2022-09-15T16:22:49.898Z,0.06
2022-09-15T16:37:46.136Z,0.04
2022-09-15T16:52:42.114Z,0.03
2022-09-15T17:07:38.395Z,0.05
2022-09-15T17:22:34.618Z,0.03
2022-09-15T17:37:30.804Z,0.02
2022-09-15T17:52:26.868Z,0.01
2022-09-15T18:07:23.946Z,0.02
2022-09-15T18:22:19.456Z,0
2022-09-15T18:37:15.259Z,0
2022-09-15T18:52:11.421Z,0.01
2022-09-15T19:07:07.754Z,0
2022-09-15T19:22:03.556Z,0
2022-09-15T19:36:59.699Z,0
2022-09-15T19:51:55.791Z,0
2022-09-15T20:06:52.149Z,0
2022-09-15T20:21:50.970Z,0
2022-09-15T20:36:44.287Z,0
2022-09-15T20:51:40.521Z,0.01
2022-09-15T22:21:17.656Z,0
2022-09-15T22:36:14.139Z,0
2022-09-15T22:51:10.046Z,0
2022-09-15T23:06:06.172Z,0
2022-09-15T23:21:02.431Z,0
2022-09-15T23:35:58.639Z,0
2022-09-15T23:50:54.114Z,0
